createdAt,value
2018-06-17T00:00:16.855Z,17.90
2018-06-17T00:01:17.086Z,17.89
2018-06-17T00:02:17.310Z,17.92
2018-06-17T00:03:17.542Z,17.90
2018-06-17T00:04:17.776Z,17.94
2018-06-17T00:05:18.001Z,17.89
2018-06-17T00:06:18.231Z,17.95
2018-06-17T00:07:18.466Z,17.90
2018-06-17T00:08:19.505Z,17.94
2018-06-17T00:09:18.973Z,17.83
2018-06-17T00:10:19.203Z,17.92
2018-06-17T00:11:19.431Z,17.82
2018-06-17T00:12:19.663Z,17.80
2018-06-17T00:13:19.896Z,17.83
2018-06-17T00:14:20.125Z,17.90
2018-06-17T00:15:20.359Z,17.90
2018-06-17T00:16:20.584Z,17.83
2018-06-17T00:17:20.818Z,17.85
2018-06-17T00:18:21.045Z,17.87
2018-06-17T00:19:21.279Z,18.00
2018-06-17T00:20:21.506Z,17.98
2018-06-17T00:21:21.736Z,17.94
2018-06-17T00:22:21.965Z,18.04
2018-06-17T00:23:22.198Z,18.03
2018-06-17T00:24:22.428Z,18.03
2018-06-17T00:25:22.659Z,17.90
2018-06-17T00:26:22.889Z,17.87
2018-06-17T00:27:23.113Z,17.82
2018-06-17T00:28:23.344Z,17.78
2018-06-17T00:29:23.574Z,17.65
2018-06-17T00:30:23.805Z,17.54
2018-06-17T00:31:24.031Z,17.71
2018-06-17T00:32:24.260Z,17.76
2018-06-17T00:33:24.487Z,17.82
2018-06-17T00:34:24.723Z,17.83
2018-06-17T00:35:24.959Z,17.76
2018-06-17T00:36:25.183Z,17.78
2018-06-17T00:37:25.420Z,17.79
2018-06-17T00:38:25.643Z,17.78
2018-06-17T00:39:25.875Z,17.83
2018-06-17T00:40:26.101Z,17.80
2018-06-17T00:41:26.331Z,17.72
2018-06-17T00:42:26.563Z,17.74
2018-06-17T00:43:26.792Z,17.71
2018-06-17T00:44:27.027Z,17.54
2018-06-17T00:45:27.254Z,17.57
2018-06-17T00:46:27.485Z,17.52
2018-06-17T00:47:27.717Z,17.64
2018-06-17T00:48:27.947Z,17.68
2018-06-17T00:49:28.174Z,17.59
2018-06-17T00:50:28.404Z,17.56
2018-06-17T00:51:28.634Z,17.59
2018-06-17T00:52:28.865Z,17.51
2018-06-17T00:53:29.094Z,17.48
2018-06-17T00:54:29.327Z,17.57
2018-06-17T00:55:29.558Z,17.49
2018-06-17T00:56:29.791Z,17.56
2018-06-17T00:57:30.021Z,17.64
2018-06-17T00:58:30.250Z,17.63
2018-06-17T00:59:30.481Z,17.64
2018-06-17T01:00:30.705Z,17.56
2018-06-17T01:01:30.935Z,17.60
2018-06-17T01:02:31.164Z,17.60
2018-06-17T01:03:31.396Z,17.51
2018-06-17T01:04:31.630Z,17.59
2018-06-17T01:05:31.857Z,17.48
2018-06-17T01:06:32.081Z,17.52
2018-06-17T01:07:32.318Z,17.44
2018-06-17T01:08:32.546Z,17.38
2018-06-17T01:09:32.778Z,17.44
2018-06-17T01:10:33.008Z,17.34
2018-06-17T01:11:33.234Z,17.45
2018-06-17T01:12:33.468Z,17.34
2018-06-17T01:13:33.700Z,17.45
2018-06-17T01:14:33.939Z,17.44
2018-06-17T01:15:34.168Z,17.44
2018-06-17T01:16:34.388Z,17.45
2018-06-17T01:17:34.616Z,17.49
2018-06-17T01:18:34.847Z,17.45
2018-06-17T01:19:35.074Z,17.38
2018-06-17T01:20:35.304Z,17.34
2018-06-17T01:21:35.533Z,17.44
2018-06-17T01:22:35.762Z,17.34
2018-06-17T01:23:36.014Z,17.38
2018-06-17T01:24:36.229Z,17.33
2018-06-17T01:25:36.462Z,17.36
2018-06-17T01:26:36.691Z,17.30
2018-06-17T01:27:36.921Z,17.22
2018-06-17T01:28:37.144Z,17.38
2018-06-17T01:29:37.375Z,17.29
2018-06-17T01:30:37.605Z,17.31
2018-06-17T01:31:37.841Z,17.27
2018-06-17T01:32:38.069Z,17.19
2018-06-17T01:33:38.295Z,17.12
2018-06-17T01:34:38.524Z,17.12
2018-06-17T01:35:38.759Z,17.02
2018-06-17T01:36:38.987Z,16.90
2018-06-17T01:37:39.221Z,17.02
2018-06-17T01:38:39.445Z,17.01
2018-06-17T01:39:39.676Z,17.06
2018-06-17T01:40:39.907Z,17.08
2018-06-17T01:41:40.144Z,17.08
2018-06-17T01:42:40.368Z,16.83
2018-06-17T01:43:40.596Z,16.81
2018-06-17T01:44:40.829Z,16.89
2018-06-17T01:45:41.060Z,16.76
2018-06-17T01:46:41.291Z,16.58
2018-06-17T01:47:41.523Z,16.60
2018-06-17T01:48:41.762Z,16.69
2018-06-17T01:49:41.994Z,16.61
2018-06-17T01:50:42.281Z,16.71
2018-06-17T01:51:42.457Z,16.78
2018-06-17T01:52:42.683Z,16.83
2018-06-17T01:53:42.916Z,16.79
2018-06-17T01:54:43.149Z,16.86
2018-06-17T01:55:43.376Z,16.87
2018-06-17T01:56:43.608Z,16.81
2018-06-17T01:57:43.840Z,16.89
2018-06-17T01:58:44.073Z,16.84
2018-06-17T01:59:44.298Z,16.84
2018-06-17T02:00:44.526Z,16.86
2018-06-17T02:01:44.751Z,16.76
2018-06-17T02:02:44.987Z,16.79
2018-06-17T02:03:45.214Z,16.78
2018-06-17T02:04:45.443Z,16.78
2018-06-17T02:05:45.674Z,16.79
2018-06-17T02:06:45.922Z,16.81
2018-06-17T02:07:46.151Z,16.79
2018-06-17T02:08:46.384Z,16.83
2018-06-17T02:09:46.611Z,16.72
2018-06-17T02:10:46.845Z,16.76
2018-06-17T02:11:47.073Z,16.69
2018-06-17T02:12:47.352Z,16.71
2018-06-17T02:13:47.527Z,16.53
2018-06-17T02:14:47.759Z,16.71
2018-06-17T02:15:47.991Z,16.66
2018-06-17T02:16:48.216Z,16.71
2018-06-17T02:17:48.445Z,16.76
2018-06-17T02:18:48.675Z,16.74
2018-06-17T02:19:48.905Z,16.68
2018-06-17T02:20:49.130Z,16.76
2018-06-17T02:21:49.362Z,16.76
2018-06-17T02:22:49.589Z,16.84
2018-06-17T02:23:49.819Z,16.84
2018-06-17T02:24:50.052Z,16.78
2018-06-17T02:25:50.280Z,16.91
2018-06-17T02:26:50.507Z,16.83
2018-06-17T02:27:50.740Z,16.78
2018-06-17T02:28:50.972Z,16.81
2018-06-17T02:29:51.198Z,16.74
2018-06-17T02:30:51.424Z,16.74
2018-06-17T02:31:51.655Z,16.61
2018-06-17T02:32:51.885Z,16.57
2018-06-17T02:33:52.113Z,16.54
2018-06-17T02:34:52.342Z,16.39
2018-06-17T02:35:52.581Z,16.32
2018-06-17T02:36:52.801Z,16.33
2018-06-17T02:37:53.033Z,16.32
2018-06-17T02:38:53.261Z,16.41
2018-06-17T02:39:53.490Z,16.46
2018-06-17T02:40:53.722Z,16.46
2018-06-17T02:41:53.951Z,16.47
2018-06-17T02:42:54.181Z,16.57
2018-06-17T02:43:54.409Z,16.56
2018-06-17T02:44:54.637Z,16.71
2018-06-17T02:45:54.866Z,16.74
2018-06-17T02:46:55.097Z,16.74
2018-06-17T02:47:55.326Z,16.71
2018-06-17T02:48:55.557Z,16.87
2018-06-17T02:49:55.784Z,16.89
2018-06-17T02:50:56.015Z,16.90
2018-06-17T02:51:56.241Z,16.96
2018-06-17T02:52:56.470Z,16.91
2018-06-17T02:53:56.703Z,16.97
2018-06-17T02:54:56.929Z,16.99
2018-06-17T02:55:57.162Z,16.96
2018-06-17T02:56:57.387Z,17.01
2018-06-17T02:57:57.620Z,16.87
2018-06-17T02:58:57.850Z,16.86
2018-06-17T02:59:58.085Z,16.94
2018-06-17T03:00:58.313Z,16.89
2018-06-17T03:01:58.541Z,16.86
2018-06-17T03:02:58.770Z,16.93
2018-06-17T03:03:59.019Z,16.81
2018-06-17T03:04:59.232Z,16.86
2018-06-17T03:05:59.468Z,16.87
2018-06-17T03:06:59.690Z,16.87
2018-06-17T03:07:59.919Z,16.96
2018-06-17T03:09:00.155Z,16.84
2018-06-17T03:10:00.382Z,16.99
2018-06-17T03:11:00.612Z,16.94
2018-06-17T03:12:00.843Z,16.97
2018-06-17T03:13:01.073Z,17.01
2018-06-17T03:14:01.304Z,16.97
2018-06-17T03:15:01.538Z,17.01
2018-06-17T03:16:01.763Z,17.01
2018-06-17T03:17:01.992Z,16.97
2018-06-17T03:18:02.221Z,16.99
2018-06-17T03:19:02.451Z,17.05
2018-06-17T03:20:02.680Z,17.08
2018-06-17T03:21:02.908Z,17.11
2018-06-17T03:22:03.136Z,17.16
2018-06-17T03:23:03.366Z,17.16
2018-06-17T03:24:03.596Z,17.12
2018-06-17T03:25:03.826Z,17.20
2018-06-17T03:26:04.057Z,17.19
2018-06-17T03:27:04.284Z,17.05
2018-06-17T03:28:04.526Z,16.97
2018-06-17T03:29:04.746Z,16.91
2018-06-17T03:30:04.979Z,16.81
2018-06-17T03:31:05.208Z,16.93
2018-06-17T03:32:05.438Z,16.97
2018-06-17T03:33:05.667Z,17.04
2018-06-17T03:34:05.897Z,16.97
2018-06-17T03:35:06.127Z,16.97
2018-06-17T03:36:06.358Z,17.09
2018-06-17T03:37:06.590Z,17.09
2018-06-17T03:38:06.820Z,17.16
2018-06-17T03:39:07.050Z,17.16
2018-06-17T03:40:07.280Z,17.22
2018-06-17T03:41:07.510Z,17.14
2018-06-17T03:42:07.740Z,17.20
2018-06-17T03:43:07.969Z,17.27
2018-06-17T03:44:08.201Z,17.34
2018-06-17T03:45:08.432Z,17.39
2018-06-17T03:46:08.664Z,17.38
2018-06-17T03:47:08.898Z,17.39
2018-06-17T03:48:09.130Z,17.41
2018-06-17T03:49:09.361Z,17.44
2018-06-17T03:50:09.590Z,17.44
2018-06-17T03:51:09.821Z,17.42
2018-06-17T03:52:10.054Z,17.42
2018-06-17T03:53:10.289Z,17.46
2018-06-17T03:54:10.522Z,17.41
2018-06-17T03:55:10.755Z,17.42
2018-06-17T03:56:10.983Z,17.38
2018-06-17T03:57:11.214Z,17.44
2018-06-17T03:58:11.432Z,17.45
2018-06-17T03:59:11.664Z,17.42
2018-06-17T04:00:11.894Z,17.41
2018-06-17T04:01:12.123Z,17.34
2018-06-17T04:02:12.351Z,17.38
2018-06-17T04:03:12.586Z,17.41
2018-06-17T04:04:12.817Z,17.30
2018-06-17T04:05:13.046Z,17.38
2018-06-17T04:06:13.277Z,17.38
2018-06-17T04:07:13.508Z,17.27
2018-06-17T04:08:13.745Z,17.38
2018-06-17T04:09:13.969Z,17.36
2018-06-17T04:10:14.210Z,17.41
2018-06-17T04:11:14.424Z,17.44
2018-06-17T04:12:14.653Z,17.48
2018-06-17T04:13:14.886Z,17.44
2018-06-17T04:14:15.114Z,17.59
2018-06-17T04:15:15.351Z,17.59
2018-06-17T04:16:15.578Z,17.57
2018-06-17T04:17:15.809Z,17.56
2018-06-17T04:18:16.040Z,17.51
2018-06-17T04:19:16.268Z,17.57
2018-06-17T04:20:16.499Z,17.60
2018-06-17T04:21:16.729Z,17.60
2018-06-17T04:22:16.961Z,17.64
2018-06-17T04:23:17.191Z,17.68
2018-06-17T04:24:17.419Z,17.70
2018-06-17T04:25:17.655Z,17.79
2018-06-17T04:26:17.876Z,17.74
2018-06-17T04:27:18.110Z,17.82
2018-06-17T04:28:18.340Z,17.85
2018-06-17T04:29:18.570Z,17.80
2018-06-17T04:30:18.798Z,17.90
2018-06-17T04:31:19.027Z,17.95
2018-06-17T04:32:19.256Z,18.01
2018-06-17T04:33:19.484Z,17.97
2018-06-17T04:34:19.717Z,17.89
2018-06-17T04:35:19.946Z,17.95
2018-06-17T04:36:20.181Z,17.85
2018-06-17T04:37:20.413Z,18.08
2018-06-17T04:38:20.645Z,17.90
2018-06-17T04:39:20.876Z,17.92
2018-06-17T04:40:21.105Z,18.07
2018-06-17T04:41:21.340Z,18.13
2018-06-17T04:42:21.566Z,18.22
2018-06-17T04:43:21.798Z,18.19
2018-06-17T04:44:22.027Z,18.20
2018-06-17T04:45:22.267Z,18.22
2018-06-17T04:46:22.503Z,18.29
2018-06-17T04:47:22.728Z,18.18
2018-06-17T04:48:22.984Z,18.40
2018-06-17T04:49:23.190Z,18.35
2018-06-17T04:50:23.421Z,18.50
2018-06-17T04:51:23.652Z,18.56
2018-06-17T04:52:23.882Z,18.49
2018-06-17T04:53:24.114Z,18.49
2018-06-17T04:54:24.342Z,18.44
2018-06-17T04:55:24.573Z,18.43
2018-06-17T04:56:24.804Z,18.50
2018-06-17T04:57:25.036Z,18.59
2018-06-17T04:58:25.259Z,18.50
2018-06-17T04:59:25.491Z,18.49
2018-06-17T05:00:25.721Z,18.53
2018-06-17T05:01:25.949Z,18.56
2018-06-17T05:02:26.179Z,18.56
2018-06-17T05:03:26.408Z,18.45
2018-06-17T05:04:26.643Z,18.47
2018-06-17T05:05:26.873Z,18.65
2018-06-17T05:06:27.105Z,18.58
2018-06-17T05:07:27.336Z,18.68
2018-06-17T05:08:27.567Z,18.74
2018-06-17T05:09:27.801Z,18.73
2018-06-17T05:10:28.029Z,18.78
2018-06-17T05:11:28.309Z,18.73
2018-06-17T05:12:28.493Z,18.89
2018-06-17T05:13:28.722Z,18.99
2018-06-17T05:14:28.951Z,18.84
2018-06-17T05:15:29.183Z,18.89
2018-06-17T05:16:29.414Z,18.98
2018-06-17T05:17:29.646Z,19.19
2018-06-17T05:18:29.877Z,19.26
2018-06-17T05:19:30.110Z,19.29
2018-06-17T05:20:30.340Z,19.47
2018-06-17T05:21:30.573Z,19.44
2018-06-17T05:22:30.801Z,19.55
2018-06-17T05:23:31.038Z,19.59
2018-06-17T05:24:31.262Z,19.71
2018-06-17T05:25:31.494Z,19.67
2018-06-17T05:26:31.726Z,19.79
2018-06-17T05:27:31.959Z,19.94
2018-06-17T05:28:32.194Z,20.00
2018-06-17T05:29:32.425Z,20.06
2018-06-17T05:30:32.658Z,20.21
2018-06-17T05:31:32.887Z,20.26
2018-06-17T05:32:33.117Z,20.44
2018-06-17T05:33:33.348Z,20.62
2018-06-17T05:34:33.581Z,20.63
2018-06-17T05:35:33.810Z,20.93
2018-06-17T05:36:34.043Z,21.24
2018-06-17T05:37:34.273Z,21.29
2018-06-17T05:38:34.505Z,21.32
2018-06-17T05:39:34.736Z,21.30
2018-06-17T05:40:34.968Z,21.27
2018-06-17T05:41:35.201Z,21.37
2018-06-17T05:42:35.431Z,21.50
2018-06-17T05:43:35.665Z,21.50
2018-06-17T05:44:35.896Z,21.45
2018-06-17T05:45:36.129Z,21.55
2018-06-17T05:46:36.363Z,21.50
2018-06-17T05:47:36.625Z,21.60
2018-06-17T05:48:36.826Z,21.64
2018-06-17T05:49:37.061Z,21.55
2018-06-17T05:50:37.291Z,21.62
2018-06-17T05:51:37.525Z,21.69
2018-06-17T05:52:37.758Z,21.69
2018-06-17T05:53:37.991Z,21.73
2018-06-17T05:54:38.228Z,21.73
2018-06-17T05:55:38.470Z,21.72
2018-06-17T05:56:38.685Z,21.80
2018-06-17T05:57:38.918Z,21.75
2018-06-17T05:58:39.153Z,21.85
2018-06-17T05:59:39.386Z,21.85
2018-06-17T06:00:39.614Z,21.83
2018-06-17T06:01:39.849Z,21.96
2018-06-17T06:02:40.080Z,22.04
2018-06-17T06:03:40.315Z,22.33
2018-06-17T06:04:40.550Z,22.41
2018-06-17T06:05:40.783Z,22.59
2018-06-17T06:06:41.013Z,22.51
2018-06-17T06:07:41.247Z,22.62
2018-06-17T06:08:41.478Z,22.65
2018-06-17T06:09:41.713Z,22.88
2018-06-17T06:10:41.953Z,22.93
2018-06-17T06:11:42.186Z,22.94
2018-06-17T06:12:42.421Z,22.93
2018-06-17T06:13:42.652Z,23.00
2018-06-17T06:14:42.885Z,23.10
2018-06-17T06:15:43.121Z,22.96
2018-06-17T06:16:43.350Z,22.98
2018-06-17T06:17:43.585Z,22.94
2018-06-17T06:18:43.819Z,23.02
2018-06-17T06:19:44.054Z,23.02
2018-06-17T06:20:44.289Z,23.08
2018-06-17T06:21:44.522Z,23.13
2018-06-17T06:22:44.755Z,23.05
2018-06-17T06:23:44.990Z,23.08
2018-06-17T06:24:45.280Z,23.08
2018-06-17T06:25:45.454Z,23.13
2018-06-17T06:26:45.687Z,23.09
2018-06-17T06:27:45.928Z,22.96
2018-06-17T06:28:46.155Z,22.93
2018-06-17T06:29:46.391Z,22.84
2018-06-17T06:30:46.622Z,22.80
2018-06-17T06:31:46.861Z,22.69
2018-06-17T06:32:47.090Z,22.62
2018-06-17T06:33:47.323Z,22.68
2018-06-17T06:34:47.559Z,22.78
2018-06-17T06:35:47.793Z,22.75
2018-06-17T06:36:48.025Z,22.73
2018-06-17T06:37:48.262Z,22.84
2018-06-17T06:38:48.497Z,22.85
2018-06-17T06:39:48.732Z,22.93
2018-06-17T06:40:48.969Z,22.88
2018-06-17T06:41:49.194Z,22.93
2018-06-17T06:42:49.419Z,22.91
2018-06-17T06:43:49.648Z,22.94
2018-06-17T06:44:49.881Z,22.87
2018-06-17T06:45:51.089Z,22.83
2018-06-17T06:46:50.317Z,22.80
2018-06-17T06:47:50.547Z,22.99
2018-06-17T06:48:50.777Z,23.13
2018-06-17T06:49:51.013Z,23.37
2018-06-17T06:50:51.289Z,23.65
2018-06-17T06:51:51.484Z,23.68
2018-06-17T06:52:51.728Z,23.63
2018-06-17T06:53:51.947Z,23.71
2018-06-17T06:54:52.185Z,23.88
2018-06-17T06:55:52.416Z,23.86
2018-06-17T06:56:52.664Z,24.17
2018-06-17T06:57:52.889Z,24.18
2018-06-17T06:58:53.115Z,24.16
2018-06-17T06:59:53.347Z,24.13
2018-06-17T07:00:53.580Z,24.13
2018-06-17T07:01:53.827Z,24.20
2018-06-17T07:02:54.050Z,24.16
2018-06-17T07:03:54.286Z,24.29
2018-06-17T07:04:54.516Z,24.35
2018-06-17T07:05:54.751Z,24.48
2018-06-17T07:06:54.984Z,24.60
2018-06-17T07:07:55.221Z,24.70
2018-06-17T07:08:55.457Z,24.70
2018-06-17T07:09:55.695Z,24.66
2018-06-17T07:10:55.930Z,24.78
2018-06-17T07:11:56.209Z,24.89
2018-06-17T07:12:56.397Z,24.95
2018-06-17T07:13:56.628Z,24.88
2018-06-17T07:14:56.863Z,24.74
2018-06-17T07:15:57.093Z,24.53
2018-06-17T07:16:57.361Z,24.48
2018-06-17T07:17:57.591Z,24.42
2018-06-17T07:18:57.828Z,24.38
2018-06-17T07:19:58.061Z,24.29
2018-06-17T07:20:58.296Z,24.39
2018-06-17T07:21:58.539Z,24.42
2018-06-17T07:22:58.773Z,24.48
2018-06-17T07:23:59.003Z,24.58
2018-06-17T07:24:59.238Z,24.61
2018-06-17T07:25:59.477Z,24.84
2018-06-17T07:26:59.707Z,24.84
2018-06-17T07:27:59.931Z,24.98
2018-06-17T07:29:00.168Z,25.04
2018-06-17T07:30:00.408Z,25.06
2018-06-17T07:31:00.641Z,24.88
2018-06-17T07:32:00.878Z,24.89
2018-06-17T07:33:01.112Z,24.91
2018-06-17T07:34:01.353Z,24.91
2018-06-17T07:35:01.588Z,24.95
2018-06-17T07:36:01.817Z,25.10
2018-06-17T07:37:02.052Z,25.14
2018-06-17T07:38:02.285Z,25.04
2018-06-17T07:39:02.519Z,25.11
2018-06-17T07:40:02.752Z,25.14
2018-06-17T07:41:02.986Z,25.11
2018-06-17T07:42:03.222Z,25.28
2018-06-17T07:43:03.457Z,25.35
2018-06-17T07:44:03.694Z,25.40
2018-06-17T07:45:03.927Z,25.41
2018-06-17T07:46:04.161Z,25.36
2018-06-17T07:47:04.393Z,25.54
2018-06-17T07:48:04.623Z,25.72
2018-06-17T07:49:04.861Z,25.73
2018-06-17T07:50:05.096Z,25.73
2018-06-17T07:51:05.331Z,25.73
2018-06-17T07:52:05.558Z,25.53
2018-06-17T07:53:05.797Z,25.60
2018-06-17T07:54:06.029Z,25.59
2018-06-17T07:55:06.257Z,25.68
2018-06-17T07:56:06.550Z,25.68
2018-06-17T07:57:06.725Z,25.77
2018-06-17T07:58:06.963Z,25.77
2018-06-17T07:59:07.194Z,25.87
2018-06-17T08:00:07.428Z,25.77
2018-06-17T08:01:07.663Z,25.84
2018-06-17T08:02:07.903Z,25.84
2018-06-17T08:03:08.137Z,25.87
2018-06-17T08:04:08.382Z,25.78
2018-06-17T08:05:08.609Z,25.75
2018-06-17T08:06:08.848Z,25.66
2018-06-17T08:07:09.084Z,25.62
2018-06-17T08:08:09.317Z,25.43
2018-06-17T08:09:09.557Z,25.40
2018-06-17T08:10:09.827Z,25.47
2018-06-17T08:11:10.036Z,25.43
2018-06-17T08:12:10.270Z,25.25
2018-06-17T08:13:10.505Z,25.35
2018-06-17T08:14:10.742Z,25.40
2018-06-17T08:15:10.975Z,25.50
2018-06-17T08:16:11.205Z,25.55
2018-06-17T08:17:11.447Z,25.60
2018-06-17T08:18:11.675Z,25.66
2018-06-17T08:19:11.911Z,25.66
2018-06-17T08:20:12.165Z,25.63
2018-06-17T08:21:12.392Z,25.48
2018-06-17T08:22:12.617Z,25.62
2018-06-17T08:23:12.849Z,25.60
2018-06-17T08:24:13.086Z,25.66
2018-06-17T08:25:13.328Z,25.72
2018-06-17T08:26:13.562Z,25.66
2018-06-17T08:27:13.786Z,25.63
2018-06-17T08:28:14.020Z,25.46
2018-06-17T08:29:14.259Z,25.59
2018-06-17T08:30:14.488Z,25.31
2018-06-17T08:31:14.723Z,25.50
2018-06-17T08:32:14.959Z,25.66
2018-06-17T08:33:15.197Z,25.75
2018-06-17T08:34:15.433Z,25.73
2018-06-17T08:35:15.673Z,25.59
2018-06-17T08:36:15.904Z,25.55
2018-06-17T08:37:16.139Z,25.62
2018-06-17T08:38:16.373Z,25.51
2018-06-17T08:39:16.613Z,25.60
2018-06-17T08:40:16.844Z,25.73
2018-06-17T08:41:17.076Z,25.83
2018-06-17T08:42:17.309Z,25.75
2018-06-17T08:43:17.545Z,25.98
2018-06-17T08:44:17.783Z,26.07
2018-06-17T08:45:18.013Z,25.96
2018-06-17T08:46:18.247Z,26.10
2018-06-17T08:47:18.483Z,26.07
2018-06-17T08:48:18.717Z,26.15
2018-06-17T08:49:18.951Z,26.25
2018-06-17T08:50:19.187Z,26.52
2018-06-17T08:51:19.423Z,26.58
2018-06-17T08:52:19.661Z,26.68
2018-06-17T08:53:19.895Z,26.66
2018-06-17T08:54:20.166Z,26.68
2018-06-17T08:55:20.365Z,26.59
2018-06-17T08:56:20.604Z,26.22
2018-06-17T08:57:20.834Z,26.31
2018-06-17T08:58:21.072Z,26.22
2018-06-17T08:59:21.305Z,26.07
2018-06-17T09:00:21.539Z,26.26
2018-06-17T09:01:21.776Z,26.28
2018-06-17T09:02:22.013Z,26.19
2018-06-17T09:03:22.243Z,26.22
2018-06-17T09:04:22.479Z,26.00
2018-06-17T09:05:22.716Z,25.91
2018-06-17T09:06:22.951Z,25.95
2018-06-17T09:07:23.188Z,25.96
2018-06-17T09:08:23.422Z,26.05
2018-06-17T09:09:23.658Z,26.09
2018-06-17T09:10:23.896Z,25.83
2018-06-17T09:11:24.127Z,25.77
2018-06-17T09:12:24.407Z,25.75
2018-06-17T09:13:24.604Z,25.55
2018-06-17T09:14:24.839Z,25.50
2018-06-17T09:15:25.074Z,25.47
2018-06-17T09:16:25.310Z,25.35
2018-06-17T09:17:25.545Z,25.26
2018-06-17T09:18:25.777Z,25.36
2018-06-17T09:19:26.071Z,25.33
2018-06-17T09:20:26.247Z,25.41
2018-06-17T09:21:26.484Z,25.28
2018-06-17T09:22:26.719Z,25.54
2018-06-17T09:23:26.954Z,25.72
2018-06-17T09:24:27.187Z,25.96
2018-06-17T09:25:27.423Z,26.19
2018-06-17T09:26:27.664Z,26.21
2018-06-17T09:27:27.888Z,26.38
2018-06-17T09:28:28.123Z,26.34
2018-06-17T09:29:28.359Z,26.28
2018-06-17T09:30:28.595Z,26.19
2018-06-17T09:31:28.830Z,26.31
2018-06-17T09:32:29.067Z,26.40
2018-06-17T09:33:29.300Z,26.51
2018-06-17T09:34:29.536Z,26.48
2018-06-17T09:35:29.774Z,26.56
2018-06-17T09:36:30.009Z,26.38
2018-06-17T09:37:30.241Z,26.29
2018-06-17T09:38:30.476Z,26.21
2018-06-17T09:39:30.706Z,25.96
2018-06-17T09:40:30.944Z,25.93
2018-06-17T09:41:31.175Z,25.77
2018-06-17T09:42:31.414Z,25.73
2018-06-17T09:43:31.647Z,25.73
2018-06-17T09:44:31.881Z,25.66
2018-06-17T09:45:32.123Z,25.51
2018-06-17T09:46:32.363Z,25.51
2018-06-17T09:47:32.589Z,25.46
2018-06-17T09:48:32.816Z,25.46
2018-06-17T09:49:33.046Z,25.48
2018-06-17T09:50:33.285Z,25.60
2018-06-17T09:51:33.512Z,25.62
2018-06-17T09:52:33.744Z,25.69
2018-06-17T09:53:33.981Z,25.72
2018-06-17T09:54:34.210Z,25.87
2018-06-17T09:55:34.442Z,25.84
2018-06-17T09:56:34.680Z,25.88
2018-06-17T09:57:34.915Z,25.98
2018-06-17T09:58:35.200Z,26.18
2018-06-17T09:59:35.386Z,26.23
2018-06-17T10:00:35.624Z,26.33
2018-06-17T10:01:35.880Z,26.48
2018-06-17T10:02:36.080Z,26.40
2018-06-17T10:03:36.318Z,26.43
2018-06-17T10:04:36.548Z,26.52
2018-06-17T10:05:36.787Z,26.45
2018-06-17T10:06:37.016Z,26.41
2018-06-17T10:07:37.247Z,26.45
2018-06-17T10:08:37.483Z,26.58
2018-06-17T10:09:37.713Z,26.51
2018-06-17T10:10:37.945Z,26.44
2018-06-17T10:11:38.181Z,26.34
2018-06-17T10:12:38.420Z,26.19
2018-06-17T10:13:38.650Z,26.44
2018-06-17T10:14:38.884Z,26.31
2018-06-17T10:15:39.121Z,26.48
2018-06-17T10:16:39.353Z,26.52
2018-06-17T10:17:39.592Z,26.47
2018-06-17T10:18:39.827Z,26.34
2018-06-17T10:19:40.062Z,26.48
2018-06-17T10:20:40.292Z,26.37
2018-06-17T10:21:40.526Z,26.40
2018-06-17T10:22:40.760Z,26.31
2018-06-17T10:23:40.998Z,26.34
2018-06-17T10:24:41.230Z,26.36
2018-06-17T10:25:41.468Z,26.29
2018-06-17T10:26:41.707Z,26.07
2018-06-17T10:27:41.945Z,26.16
2018-06-17T10:28:42.188Z,26.16
2018-06-17T10:29:42.431Z,26.00
2018-06-17T10:30:42.660Z,25.96
2018-06-17T10:31:42.893Z,25.98
2018-06-17T10:32:43.127Z,25.84
2018-06-17T10:33:43.409Z,25.80
2018-06-17T10:34:43.630Z,25.88
2018-06-17T10:35:43.838Z,25.84
2018-06-17T10:36:44.078Z,25.84
2018-06-17T10:37:44.312Z,25.98
2018-06-17T10:38:44.550Z,25.98
2018-06-17T10:39:44.789Z,25.99
2018-06-17T10:40:45.026Z,26.07
2018-06-17T10:41:45.255Z,26.00
2018-06-17T10:42:45.489Z,26.05
2018-06-17T10:43:45.735Z,26.09
2018-06-17T10:44:45.966Z,26.07
2018-06-17T10:45:46.202Z,26.18
2018-06-17T10:46:46.441Z,25.96
2018-06-17T10:47:46.680Z,25.93
2018-06-17T10:48:46.912Z,25.95
2018-06-17T10:49:47.149Z,25.90
2018-06-17T10:50:47.390Z,25.93
2018-06-17T10:51:47.625Z,25.83
2018-06-17T10:52:47.863Z,25.87
2018-06-17T10:53:48.099Z,25.77
2018-06-17T10:54:48.338Z,25.66
2018-06-17T10:55:48.634Z,25.59
2018-06-17T10:56:48.816Z,25.40
2018-06-17T10:57:49.050Z,25.38
2018-06-17T10:58:49.288Z,25.21
2018-06-17T10:59:49.520Z,25.21
2018-06-17T11:00:49.764Z,25.28
2018-06-17T11:01:50.001Z,25.16
2018-06-17T11:02:50.239Z,25.28
2018-06-17T11:03:50.481Z,25.43
2018-06-17T11:04:50.711Z,25.36
2018-06-17T11:05:50.942Z,25.47
2018-06-17T11:06:51.174Z,25.51
2018-06-17T11:07:51.417Z,25.60
2018-06-17T11:08:51.657Z,25.70
2018-06-17T11:09:51.900Z,25.68
2018-06-17T11:10:52.158Z,25.78
2018-06-17T11:11:52.386Z,25.84
2018-06-17T11:12:52.691Z,25.87
2018-06-17T11:13:52.833Z,25.87
2018-06-17T11:14:53.084Z,26.06
2018-06-17T11:15:53.319Z,26.09
2018-06-17T11:16:53.568Z,26.23
2018-06-17T11:17:53.809Z,26.34
2018-06-17T11:18:54.045Z,26.33
2018-06-17T11:19:54.286Z,26.29
2018-06-17T11:20:54.524Z,26.28
2018-06-17T11:21:54.771Z,26.38
2018-06-17T11:22:55.025Z,26.31
2018-06-17T11:23:55.261Z,26.53
2018-06-17T11:24:55.498Z,26.70
2018-06-17T11:25:55.736Z,26.92
2018-06-17T11:26:55.968Z,26.92
2018-06-17T11:27:56.207Z,27.11
2018-06-17T11:28:56.458Z,27.10
2018-06-17T11:29:56.698Z,27.14
2018-06-17T11:30:56.933Z,27.20
2018-06-17T11:31:57.276Z,27.14
2018-06-17T11:32:57.429Z,27.21
2018-06-17T11:33:57.671Z,27.22
2018-06-17T11:34:57.908Z,27.27
2018-06-17T11:35:58.145Z,27.25
2018-06-17T11:36:58.384Z,27.25
2018-06-17T11:37:58.620Z,27.39
2018-06-17T11:38:58.907Z,27.55
2018-06-17T11:39:59.098Z,27.55
2018-06-17T11:40:59.344Z,27.68
2018-06-17T11:41:59.584Z,27.68
2018-06-17T11:42:59.825Z,27.75
2018-06-17T11:44:00.064Z,27.60
2018-06-17T11:45:00.297Z,27.70
2018-06-17T11:46:00.534Z,27.64
2018-06-17T11:47:00.773Z,27.67
2018-06-17T11:48:01.019Z,27.64
2018-06-17T11:49:01.264Z,27.51
2018-06-17T11:50:01.506Z,27.49
2018-06-17T11:51:01.809Z,27.45
2018-06-17T11:52:02.042Z,27.45
2018-06-17T11:53:02.281Z,27.42
2018-06-17T11:54:02.511Z,27.51
2018-06-17T11:55:02.756Z,27.64
2018-06-17T11:56:02.996Z,27.63
2018-06-17T11:57:03.233Z,27.64
2018-06-17T11:58:03.467Z,27.54
2018-06-17T11:59:03.704Z,27.58
2018-06-17T12:00:03.958Z,27.64
2018-06-17T12:01:04.196Z,27.75
2018-06-17T12:02:04.437Z,27.87
2018-06-17T12:03:04.672Z,27.87
2018-06-17T12:04:04.909Z,27.78
2018-06-17T12:05:05.149Z,27.67
2018-06-17T12:06:05.384Z,27.73
2018-06-17T12:07:05.622Z,27.67
2018-06-17T12:08:05.865Z,27.68
2018-06-17T12:09:06.099Z,27.63
2018-06-17T12:10:06.345Z,27.63
2018-06-17T12:11:06.579Z,27.51
2018-06-17T12:12:06.813Z,27.45
2018-06-17T12:13:07.054Z,27.35
2018-06-17T12:14:07.290Z,27.48
2018-06-17T12:15:07.525Z,27.40
2018-06-17T12:16:07.763Z,27.64
2018-06-17T12:17:07.999Z,27.59
2018-06-17T12:18:08.237Z,27.59
2018-06-17T12:19:08.473Z,27.65
2018-06-17T12:20:08.709Z,27.68
2018-06-17T12:21:08.946Z,27.82
2018-06-17T12:22:09.197Z,27.80
2018-06-17T12:23:09.419Z,27.86
2018-06-17T12:24:09.654Z,27.70
2018-06-17T12:25:09.890Z,27.55
2018-06-17T12:26:10.126Z,27.52
2018-06-17T12:27:10.363Z,27.71
2018-06-17T12:28:10.600Z,27.55
2018-06-17T12:29:10.831Z,27.67
2018-06-17T12:30:11.067Z,27.70
2018-06-17T12:31:11.304Z,27.87
2018-06-17T12:32:11.551Z,27.89
2018-06-17T12:33:11.774Z,28.00
2018-06-17T12:34:12.010Z,27.92
2018-06-17T12:35:12.246Z,27.78
2018-06-17T12:36:12.481Z,27.67
2018-06-17T12:37:12.717Z,27.54
2018-06-17T12:38:12.957Z,27.51
2018-06-17T12:39:13.193Z,27.54
2018-06-17T12:40:13.428Z,27.70
2018-06-17T12:41:13.677Z,27.71
2018-06-17T12:42:13.899Z,27.68
2018-06-17T12:43:14.137Z,27.67
2018-06-17T12:44:14.380Z,27.58
2018-06-17T12:45:14.610Z,27.83
2018-06-17T12:46:14.849Z,27.67
2018-06-17T12:47:15.085Z,27.63
2018-06-17T12:48:15.312Z,27.64
2018-06-17T12:49:15.571Z,27.55
2018-06-17T12:50:15.816Z,27.59
2018-06-17T12:51:16.055Z,27.48
2018-06-17T12:52:16.294Z,27.36
2018-06-17T12:53:16.528Z,27.12
2018-06-17T12:54:16.771Z,27.11
2018-06-17T12:55:17.009Z,27.10